Orbital elements of COSMOS 970 DEB
| Launched | 20 December 1977 |
| Flight ended | – |
| Launch site | Tyuratam Missile and Space Center, Kazakhstan (Also known as Baikonur Cosmodrome) |
| Owner | Commonwealth of Independent States (former USSR) |
| NORAD ID | 64997 |
| Date fetched |
Epoch osculation |
Inc. [°] |
Ecc. | RA asc node [hr] |
Arg Peri. [°] |
Mean anom [°] |
Mean motion [rev/day] |
Abs. mag |
| Date fetched |
Epoch osculation |
Inc. [°] |
Ecc. | RA asc node [hr] |
Arg Peri. [°] |
Mean anom [°] |
Mean motion [rev/day] |
Abs. mag |
| 2026 May 03 17:57 | 2026 Apr 30 07:46:56 | 65.8130 | 0.01524 | 9.7116 | 265.0881 | 93.2766 | 13.68379 | – |
| 2026 May 02 17:57 | 2026 Apr 30 07:46:56 | 65.8130 | 0.01524 | 9.7116 | 265.0881 | 93.2766 | 13.68379 | – |
| 2026 May 01 17:56 | 2026 Apr 30 07:46:56 | 65.8130 | 0.01524 | 9.7116 | 265.0881 | 93.2766 | 13.68379 | – |
| 2026 Apr 30 17:56 | 2026 Apr 30 07:46:56 | 65.8130 | 0.01524 | 9.7116 | 265.0881 | 93.2766 | 13.68379 | – |
| 2026 Apr 29 17:57 | 2026 Apr 20 10:58:55 | 65.8146 | 0.01524 | 11.3203 | 269.5366 | 93.2766 | 13.68379 | – |
| 2026 Apr 28 17:56 | 2026 Apr 20 10:58:55 | 65.8146 | 0.01524 | 11.3203 | 269.5366 | 93.2766 | 13.68379 | – |
| 2026 Apr 27 17:58 | 2026 Apr 20 10:58:55 | 65.8146 | 0.01524 | 11.3203 | 269.5366 | 93.2766 | 13.68379 | – |
| 2026 Apr 26 17:58 | 2026 Apr 20 10:58:55 | 65.8146 | 0.01524 | 11.3203 | 269.5366 | 93.2766 | 13.68379 | – |
| 2026 Apr 25 17:58 | 2026 Apr 20 10:58:55 | 65.8146 | 0.01524 | 11.3203 | 269.5366 | 93.2766 | 13.68379 | – |
| 2026 Apr 24 17:59 | 2026 Apr 20 10:58:55 | 65.8146 | 0.01524 | 11.3203 | 269.5366 | 93.2766 | 13.68379 | – |
| 2026 Apr 23 17:57 | 2026 Apr 17 21:35:22 | 65.8143 | 0.01523 | 11.7373 | 270.6871 | 93.2766 | 13.68379 | – |
| 2026 Apr 22 17:57 | 2026 Apr 17 21:35:22 | 65.8143 | 0.01523 | 11.7373 | 270.6871 | 93.2766 | 13.68379 | – |
| 2026 Apr 21 17:57 | 2026 Apr 17 21:35:22 | 65.8143 | 0.01523 | 11.7373 | 270.6871 | 93.2766 | 13.68379 | – |
| 2026 Apr 20 17:57 | 2026 Apr 17 21:35:22 | 65.8143 | 0.01523 | 11.7373 | 270.6871 | 93.2766 | 13.68379 | – |
| 2026 Apr 19 17:58 | 2026 Apr 17 21:35:22 | 65.8143 | 0.01523 | 11.7373 | 270.6871 | 93.2766 | 13.68379 | – |
| 2026 Apr 18 17:56 | 2026 Apr 12 11:47:15 | 65.8148 | 0.01517 | 12.6191 | 273.1154 | 93.2766 | 13.68379 | – |
| 2026 Apr 16 17:57 | 2026 Apr 12 11:47:15 | 65.8148 | 0.01517 | 12.6191 | 273.1154 | 93.2766 | 13.68379 | – |
| 2026 Apr 14 17:57 | 2026 Apr 12 11:47:15 | 65.8148 | 0.01517 | 12.6191 | 273.1154 | 93.2766 | 13.68379 | – |
| 2026 Apr 13 17:57 | 2026 Apr 12 11:47:15 | 65.8148 | 0.01517 | 12.6191 | 273.1154 | 93.2766 | 13.68379 | – |
| 2026 Apr 12 17:57 | 2026 Apr 02 14:59:10 | 65.8137 | 0.01510 | 14.2277 | 277.6313 | 93.2766 | 13.68379 | – |
| 2026 Apr 11 17:57 | 2026 Apr 02 14:59:10 | 65.8137 | 0.01510 | 14.2277 | 277.6313 | 93.2766 | 13.68379 | – |
| 2026 Apr 10 17:58 | 2026 Apr 02 14:59:10 | 65.8137 | 0.01510 | 14.2277 | 277.6313 | 93.2766 | 13.68379 | – |
| 2026 Apr 09 18:01 | 2026 Apr 02 14:59:10 | 65.8137 | 0.01510 | 14.2277 | 277.6313 | 93.2766 | 13.68379 | – |
| 2026 Apr 08 17:57 | 2026 Apr 02 14:59:10 | 65.8137 | 0.01510 | 14.2277 | 277.6313 | 93.2766 | 13.68379 | – |
| 2026 Apr 07 17:57 | 2026 Mar 31 15:37:33 | 65.8139 | 0.01517 | 14.5495 | 278.5183 | 93.2766 | 13.68379 | – |
| 2026 Apr 06 17:57 | 2026 Mar 31 15:37:33 | 65.8139 | 0.01517 | 14.5495 | 278.5183 | 93.2766 | 13.68379 | – |